createdAt,value
2022-10-23T00:00:30.742Z,101185.22
2022-10-23T00:03:02.971Z,101189.56
2022-10-23T00:05:38.933Z,101186.03
2022-10-23T00:08:10.834Z,101178.06
2022-10-23T00:10:44.129Z,101177.22
2022-10-23T00:13:16.043Z,101170.91
2022-10-23T00:15:48.095Z,101177.16
2022-10-23T00:18:19.960Z,101175.38
2022-10-23T00:20:51.825Z,101173.56
2022-10-23T00:23:24.760Z,101171.72
2022-10-23T00:25:56.640Z,101173.41
2022-10-23T00:28:28.746Z,101184.09
2022-10-23T00:31:05.525Z,101180.50
2022-10-23T00:33:37.761Z,101175.19
2022-10-23T00:36:12.803Z,101174.31
2022-10-23T00:38:45.941Z,101173.41
2022-10-23T00:41:29.746Z,101179.50
2022-10-23T00:44:19.051Z,101174.25
2022-10-23T00:46:51.094Z,101168.06
2022-10-23T00:49:23.546Z,101175.09
2022-10-23T00:52:04.473Z,101169.72
2022-10-23T00:54:40.695Z,101160.84
2022-10-23T00:57:15.736Z,101158.97
2022-10-23T00:59:47.898Z,101159.97
2022-10-23T01:02:20.087Z,101167.88
2022-10-23T01:04:52.187Z,101163.47
2022-10-23T01:07:46.342Z,101154.53
2022-10-23T01:10:56.697Z,101160.72
2022-10-23T01:17:25.701Z,101159.75
2022-10-23T01:20:31.629Z,101154.38
2022-10-23T01:23:47.227Z,101153.44
2022-10-23T01:26:52.636Z,101148.94
2022-10-23T01:29:39.598Z,101144.56
2022-10-23T01:32:27.360Z,101146.31
2022-10-23T01:35:12.793Z,101135.69
2022-10-23T01:37:53.732Z,101135.69
2022-10-23T01:40:33.923Z,101136.53
2022-10-23T01:43:16.680Z,101125.91
2022-10-23T01:45:58.302Z,101117.94
2022-10-23T01:48:32.098Z,101122.34
2022-10-23T01:51:09.459Z,101124.09
2022-10-23T01:53:46.625Z,101104.66
2022-10-23T01:56:29.074Z,101111.66
2022-10-23T01:59:10.822Z,101106.34
2022-10-23T02:01:47.339Z,101109.88
2022-10-23T02:04:28.755Z,101108.94
2022-10-23T02:07:00.762Z,101108.03
2022-10-23T02:09:33.748Z,101108.03
2022-10-23T02:12:16.486Z,101117.63
2022-10-23T02:15:19.764Z,101108.66
2022-10-23T02:18:19.160Z,101107.72
2022-10-23T02:21:00.679Z,101106.88
2022-10-23T02:24:09.587Z,101105.13
2022-10-23T02:26:57.192Z,101107.72
2022-10-23T02:29:40.441Z,101098.00
2022-10-23T02:32:15.653Z,101099.84
2022-10-23T02:34:48.569Z,101090.13
2022-10-23T02:39:54.652Z,101083.06
2022-10-23T02:42:42.720Z,101075.09
2022-10-23T02:45:44.645Z,101066.28
2022-10-23T02:48:34.962Z,101055.53
2022-10-23T02:51:48.464Z,101052.03
2022-10-23T02:54:58.979Z,101029.06
2022-10-23T02:57:46.197Z,101031.78
2022-10-23T03:00:22.024Z,101019.41
2022-10-23T03:03:00.598Z,101021.28
2022-10-23T03:05:38.415Z,101012.28
2022-10-23T03:08:12.503Z,101015.09
2022-10-23T03:10:44.648Z,101010.75
2022-10-23T03:13:16.602Z,101003.66
2022-10-23T03:15:48.472Z,101006.25
2022-10-23T03:18:20.321Z,100995.59
2022-10-23T03:20:52.213Z,101008.00
2022-10-23T03:23:24.159Z,101000.94
2022-10-23T03:25:56.476Z,100993.00
2022-10-23T03:28:28.458Z,100984.16
2022-10-23T03:31:02.260Z,100989.47
2022-10-23T03:33:34.232Z,100992.13
2022-10-23T03:36:06.540Z,100994.81
2022-10-23T03:38:38.428Z,100989.53
2022-10-23T03:41:10.326Z,100984.19
2022-10-23T03:43:42.248Z,100979.84
2022-10-23T03:46:14.108Z,100980.63
2022-10-23T03:48:45.979Z,100984.16
2022-10-23T03:51:17.820Z,100974.44
2022-10-23T03:53:49.962Z,100978.94
2022-10-23T03:56:22.173Z,100970.94
2022-10-23T03:58:54.180Z,100966.50
2022-10-23T04:01:26.559Z,100962.13
2022-10-23T04:03:58.571Z,100947.94
2022-10-23T04:06:30.463Z,100948.81
2022-10-23T04:09:02.604Z,100942.63
2022-10-23T04:11:34.764Z,100940.00
2022-10-23T04:14:06.717Z,100937.34
2022-10-23T04:16:38.862Z,100939.13
2022-10-23T04:19:10.875Z,100936.53
2022-10-23T04:21:43.393Z,100941.81
2022-10-23T04:24:15.352Z,100943.59
2022-10-23T04:26:47.255Z,100947.13
2022-10-23T04:29:21.300Z,100948.88
2022-10-23T04:31:53.190Z,100940.94
2022-10-23T04:34:25.052Z,100946.22
2022-10-23T04:36:56.901Z,100943.47
2022-10-23T04:39:28.791Z,100946.97
2022-10-23T04:42:00.821Z,100944.34
2022-10-23T04:44:32.748Z,100943.44
2022-10-23T04:47:04.729Z,100934.66
2022-10-23T04:49:36.632Z,100930.22
2022-10-23T04:52:08.518Z,100932.00
2022-10-23T04:54:40.414Z,100932.91
2022-10-23T04:57:12.310Z,100924.97
2022-10-23T04:59:44.221Z,100921.41
2022-10-23T05:02:16.142Z,100928.44
2022-10-23T05:04:48.085Z,100927.59
2022-10-23T05:07:23.038Z,100928.47
2022-10-23T05:09:55.039Z,100923.09
2022-10-23T05:12:27.754Z,100913.31
2022-10-23T05:14:59.692Z,100921.31
2022-10-23T05:17:39.812Z,100915.13
2022-10-23T05:20:19.930Z,100907.97
2022-10-23T05:22:56.150Z,100902.69
2022-10-23T05:25:30.454Z,100906.28
2022-10-23T05:28:02.491Z,100897.41
2022-10-23T05:30:34.543Z,100893.97
2022-10-23T05:33:06.673Z,100901.03
2022-10-23T05:35:41.272Z,100893.06
2022-10-23T05:38:14.914Z,100902.69
2022-10-23T05:40:46.905Z,100899.19
2022-10-23T05:43:18.827Z,100881.41
2022-10-23T05:45:50.707Z,100891.31
2022-10-23T05:48:33.943Z,100893.06
2022-10-23T05:51:11.805Z,100886.75
2022-10-23T05:53:43.648Z,100884.97
2022-10-23T05:56:16.168Z,100897.34
2022-10-23T05:58:48.571Z,100885.06
2022-10-23T06:01:20.632Z,100872.53
2022-10-23T06:03:52.761Z,100876.22
2022-10-23T06:06:24.691Z,100884.16
2022-10-23T06:08:56.805Z,100872.78
2022-10-23T06:11:28.856Z,100870.13
2022-10-23T06:14:01.086Z,100871.84
2022-10-23T06:16:33.477Z,100862.16
2022-10-23T06:19:05.355Z,100867.50
2022-10-23T06:21:38.525Z,100863.00
2022-10-23T06:24:10.997Z,100866.09
2022-10-23T06:26:42.947Z,100864.00
2022-10-23T06:29:14.807Z,100866.59
2022-10-23T06:31:46.770Z,100864.84
2022-10-23T06:34:18.640Z,100864.84
2022-10-23T06:36:50.564Z,100855.16
2022-10-23T06:39:22.847Z,100843.72
2022-10-23T06:41:55.551Z,100855.25
2022-10-23T06:44:27.421Z,100848.19
2022-10-23T06:47:02.030Z,100844.63
2022-10-23T06:49:33.896Z,100838.41
2022-10-23T06:52:11.071Z,100834.00
2022-10-23T06:54:50.310Z,100834.06
2022-10-23T06:57:22.205Z,100834.09
2022-10-23T06:59:54.146Z,100830.63
2022-10-23T07:02:26.119Z,100826.22
2022-10-23T07:04:58.165Z,100819.09
2022-10-23T07:07:31.040Z,100843.03
2022-10-23T07:10:03.278Z,100835.09
2022-10-23T07:12:35.268Z,100830.69
2022-10-23T07:15:08.284Z,100833.38
2022-10-23T07:17:40.168Z,100830.75
2022-10-23T07:20:12.094Z,100812.03
2022-10-23T07:22:44.342Z,100824.59
2022-10-23T07:25:16.620Z,100782.78
2022-10-23T07:27:49.100Z,100812.28
2022-10-23T07:30:20.994Z,100815.84
2022-10-23T07:32:52.939Z,100815.00
2022-10-23T07:35:24.880Z,100814.16
2022-10-23T07:37:59.078Z,100812.47
2022-10-23T07:40:31.316Z,100815.13
2022-10-23T07:43:03.271Z,100808.13
2022-10-23T07:45:35.138Z,100796.69
2022-10-23T07:48:07.104Z,100800.22
2022-10-23T07:50:39.207Z,100796.78
2022-10-23T07:53:24.307Z,100798.56
2022-10-23T07:56:00.344Z,100803.88
2022-10-23T07:58:32.314Z,100797.72
2022-10-23T08:01:16.000Z,100801.28
2022-10-23T08:03:48.153Z,100803.09
2022-10-23T08:06:20.057Z,100804.06
2022-10-23T08:08:52.318Z,100796.09
2022-10-23T08:11:28.062Z,100797.09
2022-10-23T08:14:00.028Z,100799.75
2022-10-23T08:16:37.862Z,100803.34
2022-10-23T08:19:11.567Z,100800.72
2022-10-23T08:21:43.481Z,100806.91
2022-10-23T08:24:15.456Z,100795.47
2022-10-23T08:26:50.302Z,100801.69
2022-10-23T08:29:22.187Z,100788.50
2022-10-23T08:31:56.391Z,100771.66
2022-10-23T08:34:28.530Z,100783.22
2022-10-23T08:37:00.443Z,100782.38
2022-10-23T08:39:32.360Z,100777.13
2022-10-23T08:42:05.230Z,100770.91
2022-10-23T08:44:53.821Z,100763.78
2022-10-23T08:47:42.869Z,100757.69
2022-10-23T08:50:34.841Z,100760.31
2022-10-23T08:53:34.923Z,100762.97
2022-10-23T08:56:28.746Z,100760.31
2022-10-23T08:59:28.266Z,100759.50
2022-10-23T09:02:21.198Z,100755.13
2022-10-23T09:04:57.334Z,100738.38
2022-10-23T09:07:47.688Z,100735.72
2022-10-23T09:11:06.623Z,100738.34
2022-10-23T09:13:55.254Z,100734.00
2022-10-23T09:17:07.186Z,100726.13
2022-10-23T09:19:39.116Z,100725.28
2022-10-23T09:22:12.000Z,100727.97
2022-10-23T09:24:44.202Z,100713.88
2022-10-23T09:27:18.351Z,100710.38
2022-10-23T09:29:54.770Z,100704.19
2022-10-23T09:32:38.333Z,100697.16
2022-10-23T09:35:26.782Z,100691.84
2022-10-23T09:37:58.802Z,100688.38
2022-10-23T09:40:38.195Z,100676.94
2022-10-23T09:43:18.867Z,100676.88
2022-10-23T09:46:00.870Z,100684.97
2022-10-23T09:48:34.400Z,100681.47
2022-10-23T09:51:22.186Z,100677.03
2022-10-23T09:53:58.804Z,100683.28
2022-10-23T09:56:35.668Z,100680.66
2022-10-23T09:59:14.052Z,100668.28
2022-10-23T10:02:05.369Z,100659.44
2022-10-23T10:04:41.811Z,100648.00
2022-10-23T10:07:32.281Z,100649.75
2022-10-23T10:10:15.350Z,100647.13
2022-10-23T10:12:59.151Z,100632.13
2022-10-23T10:15:48.820Z,100636.56
2022-10-23T10:18:43.329Z,100622.41
2022-10-23T10:21:30.441Z,100624.16
2022-10-23T10:24:08.367Z,100616.25
2022-10-23T10:27:01.716Z,100611.84
2022-10-23T10:30:16.046Z,100616.25
2022-10-23T10:32:59.243Z,100619.84
2022-10-23T10:35:49.115Z,100632.25
2022-10-23T10:38:46.459Z,100619.91
2022-10-23T10:41:44.482Z,100608.47
2022-10-23T10:44:35.213Z,100603.19
2022-10-23T10:47:21.173Z,100605.91
2022-10-23T10:50:03.292Z,100592.72
2022-10-23T10:52:53.758Z,100589.25
2022-10-23T10:55:36.078Z,100576.00
2022-10-23T10:58:40.481Z,100568.97
2022-10-23T11:01:27.746Z,100558.34
2022-10-23T11:04:23.692Z,100564.59
2022-10-23T11:06:59.592Z,100578.78
2022-10-23T11:09:32.304Z,100573.50
2022-10-23T11:12:04.832Z,100567.28
2022-10-23T11:14:38.217Z,100562.84
2022-10-23T11:17:25.990Z,100562.84
2022-10-23T11:20:26.954Z,100572.59
2022-10-23T11:23:08.621Z,100571.75
2022-10-23T11:26:12.172Z,100545.16
2022-10-23T11:29:16.516Z,100551.34
2022-10-23T11:32:03.462Z,100546.94
2022-10-23T11:35:01.678Z,100531.88
2022-10-23T11:37:33.994Z,100517.72
2022-10-23T11:40:09.048Z,100513.28
2022-10-23T11:42:41.124Z,100508.84
2022-10-23T11:45:45.512Z,100518.59
2022-10-23T11:48:17.343Z,100507.94
2022-10-23T11:50:53.632Z,100500.84
2022-10-23T11:53:48.434Z,100499.94
2022-10-23T11:56:20.242Z,100495.47
2022-10-23T11:58:58.927Z,100484.84
2022-10-23T12:01:47.305Z,100505.25
2022-10-23T12:04:27.890Z,100489.31
2022-10-23T12:07:25.264Z,100491.97
2022-10-23T12:10:06.526Z,100489.28
2022-10-23T12:12:41.062Z,100487.50
2022-10-23T12:15:15.981Z,100483.94
2022-10-23T12:17:50.789Z,100483.09
2022-10-23T12:20:55.082Z,100475.97
2022-10-23T12:23:32.935Z,100482.16
2022-10-23T12:26:45.825Z,100469.75
2022-10-23T12:29:59.763Z,100456.44
2022-10-23T12:33:25.537Z,100449.34
2022-10-23T12:36:59.454Z,100448.44
2022-10-23T12:39:39.157Z,100432.47
2022-10-23T12:42:26.381Z,100421.72
2022-10-23T12:45:23.831Z,100422.69
2022-10-23T12:47:56.201Z,100412.91
2022-10-23T12:50:32.051Z,100423.50
2022-10-23T12:53:08.314Z,100421.78
2022-10-23T12:58:35.760Z,100411.06
2022-10-23T13:01:21.729Z,100411.06
2022-10-23T13:04:05.589Z,100388.91
2022-10-23T13:06:39.958Z,100403.03
2022-10-23T13:09:42.851Z,100393.31
2022-10-23T13:12:34.999Z,100380.88
2022-10-23T13:15:06.851Z,100375.53
2022-10-23T13:17:59.180Z,100368.44
2022-10-23T13:20:38.413Z,100375.50
2022-10-23T13:23:27.956Z,100368.41
2022-10-23T13:26:35.096Z,100356.00
2022-10-23T13:32:22.984Z,100341.75
2022-10-23T13:35:04.212Z,100334.63
2022-10-23T13:37:49.234Z,100319.53
2022-10-23T13:40:27.865Z,100322.19
2022-10-23T13:43:00.246Z,100313.28
2022-10-23T13:45:35.890Z,100316.78
2022-10-23T13:48:15.233Z,100323.84
2022-10-23T13:50:47.241Z,100322.97
2022-10-23T13:53:19.619Z,100320.25
2022-10-23T13:55:56.238Z,100318.50
2022-10-23T13:58:30.536Z,100321.13
2022-10-23T14:01:02.918Z,100305.19
2022-10-23T14:03:35.511Z,100323.75
2022-10-23T14:06:07.791Z,100320.19
2022-10-23T14:08:39.638Z,100318.44
2022-10-23T14:13:50.812Z,100317.50
2022-10-23T14:16:23.435Z,100313.09
2022-10-23T14:18:56.274Z,100310.41
2022-10-23T14:21:28.291Z,100315.75
2022-10-23T14:24:00.411Z,100314.00
2022-10-23T14:26:35.612Z,100291.84
2022-10-23T14:29:10.202Z,100312.22
2022-10-23T14:31:45.894Z,100317.56
2022-10-23T14:34:17.775Z,100315.78
2022-10-23T14:36:56.731Z,100317.59
2022-10-23T14:39:44.202Z,100306.94
2022-10-23T14:42:19.488Z,100309.59
2022-10-23T14:44:51.717Z,100317.59
2022-10-23T14:47:23.920Z,100308.72
2022-10-23T14:49:56.331Z,100306.94
2022-10-23T14:52:28.817Z,100304.28
2022-10-23T14:55:01.773Z,100295.44
2022-10-23T14:57:34.080Z,100296.28
2022-10-23T15:00:09.904Z,100291.84
2022-10-23T15:02:41.943Z,100287.44
2022-10-23T15:05:14.475Z,100275.00
2022-10-23T15:07:46.437Z,100278.56
2022-10-23T15:10:18.593Z,100279.44
2022-10-23T15:12:50.631Z,100281.19
2022-10-23T15:15:22.751Z,100274.13
2022-10-23T15:17:54.625Z,100267.00
2022-10-23T15:20:26.594Z,100273.22
2022-10-23T15:22:58.565Z,100263.47
2022-10-23T15:25:30.500Z,100260.84
2022-10-23T15:28:02.537Z,100267.97
2022-10-23T15:30:34.415Z,100275.97
2022-10-23T15:33:06.269Z,100271.56
2022-10-23T15:35:38.157Z,100261.81
2022-10-23T15:38:10.035Z,100260.94
2022-10-23T15:40:42.755Z,100237.94
2022-10-23T15:43:17.082Z,100258.25
2022-10-23T15:45:58.353Z,100250.28
2022-10-23T15:48:30.226Z,100252.06
2022-10-23T15:51:02.250Z,100238.75
2022-10-23T15:53:34.210Z,100229.88
2022-10-23T15:56:06.354Z,100217.28
2022-10-23T15:58:38.583Z,100201.50
2022-10-23T16:01:10.830Z,100196.19
2022-10-23T16:03:42.836Z,100181.09
2022-10-23T16:06:18.367Z,100166.88
2022-10-23T16:08:50.446Z,100153.59
2022-10-23T16:11:26.319Z,100161.59
2022-10-23T16:14:00.052Z,100165.19
2022-10-23T16:16:33.732Z,100182.94
2022-10-23T16:19:06.031Z,100164.31
2022-10-23T16:21:38.036Z,100169.66
2022-10-23T16:24:10.490Z,100164.28
2022-10-23T16:26:42.509Z,100187.38
2022-10-23T16:29:14.350Z,100203.38
2022-10-23T16:31:46.319Z,100198.94
2022-10-23T16:39:41.445Z,100205.22
2022-10-23T16:42:13.510Z,100221.19
2022-10-23T16:44:45.604Z,100215.84
2022-10-23T16:47:17.758Z,100200.78
2022-10-23T16:49:49.691Z,100191.00
2022-10-23T16:52:21.657Z,100185.69
2022-10-23T16:54:53.996Z,100188.34
2022-10-23T16:57:33.158Z,100180.41
2022-10-23T17:00:06.922Z,100178.59
2022-10-23T17:02:39.066Z,100177.72
2022-10-23T17:05:11.044Z,100181.28
2022-10-23T17:07:43.179Z,100175.94
2022-10-23T17:10:15.461Z,100166.16
2022-10-23T17:12:47.362Z,100175.94
2022-10-23T17:15:20.883Z,100177.75
2022-10-23T17:17:52.751Z,100186.56
2022-10-23T17:20:24.687Z,100193.69
2022-10-23T17:22:56.658Z,100184.84
2022-10-23T17:25:28.594Z,100184.88
2022-10-23T17:28:00.472Z,100193.75
2022-10-23T17:30:32.423Z,100194.63
2022-10-23T17:33:04.369Z,100200.84
2022-10-23T17:35:37.524Z,100214.16
2022-10-23T17:38:09.531Z,100209.69
2022-10-23T17:40:41.539Z,100213.25
2022-10-23T17:43:15.691Z,100213.25
2022-10-23T17:45:47.642Z,100195.50
2022-10-23T17:48:19.612Z,100191.06
2022-10-23T17:51:04.899Z,100210.63
2022-10-23T17:53:39.716Z,100211.50
2022-10-23T17:56:19.130Z,100200.00
2022-10-23T17:59:03.322Z,100189.34
2022-10-23T18:01:35.607Z,100189.34
2022-10-23T18:04:08.294Z,100200.91
2022-10-23T18:06:53.554Z,100208.03
2022-10-23T18:09:25.563Z,100196.47
2022-10-23T18:11:57.519Z,100197.41
2022-10-23T18:14:29.724Z,100202.72
2022-10-23T18:17:01.905Z,100196.50
2022-10-23T18:19:34.615Z,100193.84
2022-10-23T18:22:06.739Z,100193.84
2022-10-23T18:24:38.811Z,100177.97
2022-10-23T18:27:10.693Z,100180.59
2022-10-23T18:29:43.558Z,100185.91
2022-10-23T18:32:15.558Z,100176.16
2022-10-23T18:34:47.659Z,100177.97
2022-10-23T18:37:19.663Z,100175.28
2022-10-23T18:39:51.612Z,100157.56
2022-10-23T18:42:23.540Z,100165.50
2022-10-23T18:44:55.498Z,100169.13
2022-10-23T18:47:27.570Z,100171.78
2022-10-23T18:49:59.556Z,100185.06
2022-10-23T18:52:31.501Z,100180.63
2022-10-23T18:55:07.213Z,100165.59
2022-10-23T18:57:39.735Z,100174.41
2022-10-23T19:00:13.071Z,100193.91
2022-10-23T19:02:47.711Z,100189.53
2022-10-23T19:05:23.124Z,100203.66
2022-10-23T19:07:55.421Z,100204.50
2022-10-23T19:10:32.606Z,100238.19
2022-10-23T19:13:05.517Z,100290.56
2022-10-23T19:15:37.922Z,100356.22
2022-10-23T19:18:10.422Z,100332.19
2022-10-23T19:20:43.966Z,100303.03
2022-10-23T19:23:16.195Z,100310.16
2022-10-23T19:25:48.405Z,100287.19
2022-10-23T19:28:20.376Z,100285.47
2022-10-23T19:30:52.496Z,100253.59
2022-10-23T19:33:24.374Z,100279.34
2022-10-23T19:35:56.367Z,100285.56
2022-10-23T19:38:28.592Z,100289.16
2022-10-23T19:41:01.076Z,100275.91
2022-10-23T19:43:33.264Z,100272.34
2022-10-23T19:46:09.505Z,100276.75
2022-10-23T19:48:45.739Z,100285.66
2022-10-23T19:51:17.610Z,100262.59
2022-10-23T19:53:49.666Z,100243.16
2022-10-23T19:56:22.062Z,100249.34
2022-10-23T19:58:54.282Z,100255.53
2022-10-23T20:01:26.621Z,100265.28
2022-10-23T20:03:58.706Z,100283.03
2022-10-23T20:06:34.680Z,100314.00
2022-10-23T20:09:09.897Z,100322.84
2022-10-23T20:11:43.613Z,100331.69
2022-10-23T20:14:18.404Z,100304.22
2022-10-23T20:16:55.582Z,100300.69
2022-10-23T20:19:28.570Z,100286.53
2022-10-23T20:22:00.878Z,100288.31
2022-10-23T20:24:32.806Z,100291.84
2022-10-23T20:27:04.798Z,100296.25
2022-10-23T20:29:37.132Z,100288.28
2022-10-23T20:32:09.189Z,100298.94
2022-10-23T20:34:41.975Z,100299.78
2022-10-23T20:37:14.001Z,100292.72
2022-10-23T20:39:45.992Z,100308.63
2022-10-23T20:42:17.923Z,100314.84
2022-10-23T20:44:49.839Z,100307.75
2022-10-23T20:47:21.882Z,100298.94
2022-10-23T20:49:53.849Z,100299.84
2022-10-23T20:52:27.555Z,100298.06
2022-10-23T20:54:59.519Z,100301.59
2022-10-23T20:57:31.491Z,100291.88
2022-10-23T21:00:05.687Z,100297.19
2022-10-23T21:02:37.752Z,100295.41
2022-10-23T21:05:09.966Z,100290.09
2022-10-23T21:07:41.828Z,100288.34
2022-10-23T21:10:13.872Z,100275.94
2022-10-23T21:12:46.023Z,100284.78
2022-10-23T21:15:18.469Z,100285.69
2022-10-23T21:17:52.180Z,100279.47
2022-10-23T21:20:24.090Z,100283.03
2022-10-23T21:22:56.038Z,100280.38
2022-10-23T21:25:27.931Z,100278.56
2022-10-23T21:27:59.870Z,100270.63
2022-10-23T21:30:33.727Z,100266.19
2022-10-23T21:33:06.202Z,100264.41
2022-10-23T21:35:43.222Z,100275.94
2022-10-23T21:38:24.319Z,100264.44
2022-10-23T21:41:07.590Z,100267.06
2022-10-23T21:43:40.024Z,100255.56
2022-10-23T21:46:18.290Z,100246.75
2022-10-23T21:48:50.926Z,100249.38
2022-10-23T21:51:29.462Z,100264.44
2022-10-23T21:54:02.343Z,100265.31
2022-10-23T21:56:46.006Z,100267.06
2022-10-23T21:59:21.956Z,100260.00
2022-10-23T22:01:54.111Z,100255.56
2022-10-23T22:04:26.400Z,100270.63
2022-10-23T22:06:58.335Z,100264.41
2022-10-23T22:09:31.848Z,100267.06
2022-10-23T22:12:03.893Z,100268.84
2022-10-23T22:14:37.633Z,100268.84
2022-10-23T22:17:09.758Z,100272.38
2022-10-23T22:19:41.755Z,100256.47
2022-10-23T22:22:13.705Z,100271.53
2022-10-23T22:24:45.679Z,100268.88
2022-10-23T22:27:17.609Z,100267.97
2022-10-23T22:29:49.529Z,100266.19
2022-10-23T22:34:58.301Z,100252.03
2022-10-23T22:37:30.187Z,100247.63
2022-10-23T22:40:02.455Z,100246.72
2022-10-23T22:42:34.337Z,100237.00
2022-10-23T22:45:07.103Z,100233.47
2022-10-23T22:47:39.006Z,100236.97
2022-10-23T22:50:10.966Z,100231.66
2022-10-23T22:52:43.041Z,100230.81
2022-10-23T22:55:15.157Z,100236.97
2022-10-23T22:57:47.182Z,100233.44
2022-10-23T23:00:19.302Z,100227.25
2022-10-23T23:02:51.249Z,100235.22
2022-10-23T23:05:23.148Z,100231.69
2022-10-23T23:07:55.071Z,100228.13
2022-10-23T23:10:26.978Z,100222.84
2022-10-23T23:12:58.906Z,100215.78
2022-10-23T23:15:31.334Z,100217.53
2022-10-23T23:18:03.281Z,100212.22
2022-10-23T23:20:35.494Z,100219.28
2022-10-23T23:23:07.477Z,100217.47
2022-10-23T23:25:46.052Z,100204.25
2022-10-23T23:28:20.656Z,100229.91
2022-10-23T23:31:16.398Z,100220.16
2022-10-23T23:33:49.137Z,100214.84
2022-10-23T23:36:26.165Z,100217.47
2022-10-23T23:38:58.437Z,100212.19
2022-10-23T23:41:30.549Z,100213.97
2022-10-23T23:44:02.426Z,100213.97
2022-10-23T23:46:34.372Z,100219.28
2022-10-23T23:49:06.412Z,100218.38
2022-10-23T23:51:38.428Z,100213.97
2022-10-23T23:54:10.297Z,100215.75
2022-10-23T23:56:42.264Z,100208.66
2022-10-23T23:59:14.322Z,100205.13
